Weather reports worldwide

Advertisment
Salsburgh, United Kingdom (99024): temperature & dewpoint: 21.04.2017 00:00:00 - 27.04.2017 00:00:00 (BST)Salsburgh, United Kingdom (99024): wind speed & gusts: 21.04.2017 00:00:00 - 27.04.2017 00:00:00 (BST)Salsburgh, United Kingdom (99024): wind direction: 21.04.2017 00:00:00 - 27.04.2017 00:00:00 (BST)Salsburgh, United Kingdom (99024): precipitation: 21.04.2017 00:00:00 - 27.04.2017 00:00:00 (BST)
Date & Time tt [°C] td [°C] ff [km/h] ff [kn] fx [km/h] fx [kn] dd rr [mm]
27.04.2017 00:00:00 - - - - - - - 0,0
26.04.2017 23:00:00 4,1 2,1 11 6 - - W 0,0
26.04.2017 22:00:00 4,6 1,6 15 8 - - W 0,0
26.04.2017 21:00:00 4,8 0,7 11 6 - - W 0,0
26.04.2017 20:00:00 6,0 -0,1 16 9 - - W 0,0
26.04.2017 19:00:00 6,7 -1,0 13 7 - - WNW 0,0
26.04.2017 18:00:00 6,2 -1,2 16 9 - - WNW 0,0
26.04.2017 17:00:00 6,5 -1,8 9 5 - - NNW 0,0
26.04.2017 16:00:00 6,0 -2,3 13 7 - - NNW 0,0
26.04.2017 15:00:00 6,0 -2,8 13 7 - - N 0,0
26.04.2017 14:00:00 5,9 -2,7 11 6 - - NW 0,0
26.04.2017 13:00:00 5,6 -2,8 18 10 - - NNW 0,0
26.04.2017 12:00:00 5,7 -3,5 13 7 - - NNW 0,0
26.04.2017 11:00:00 4,6 -3,8 18 10 - - NNW 0,0
26.04.2017 10:00:00 4,3 -4,6 21 11 - - NW 0,0
26.04.2017 09:00:00 3,8 -4,1 18 10 - - NW 0,0
26.04.2017 08:00:00 1,6 -2,7 15 8 - - NW 0,0
26.04.2017 07:00:00 -0,9 -3,9 11 6 - - WNW 0,0
26.04.2017 06:00:00 -1,3 -4,5 5 3 - - WNW 0,0
26.04.2017 05:00:00 -1,7 -5,4 9 5 - - NNW 0,0
26.04.2017 04:00:00 -1,3 -4,9 9 5 - - NW 0,0
26.04.2017 03:00:00 -0,8 -5,0 8 4 - - NW 0,0
26.04.2017 02:00:00 -0,7 -4,6 13 7 - - N 0,0
26.04.2017 01:00:00 -0,7 -4,6 11 6 - - NNW 0,0
26.04.2017 00:00:00 0,1 -4,3 8 4 - - N 0,0
25.04.2017 23:00:00 1,0 -3,6 26 14 - - N 0,0
25.04.2017 22:00:00 1,8 -3,5 28 15 - - N 0,0
25.04.2017 21:00:00 2,2 -3,9 21 11 - - N 0,0
25.04.2017 20:00:00 3,8 -3,9 26 14 - - N 0,0
25.04.2017 19:00:00 5,3 -4,3 34 18 54 29 NNE 0,0
25.04.2017 18:00:00 6,7 -3,7 37 20 52 28 N 0,0
25.04.2017 17:00:00 6,0 -3,0 37 20 54 29 N 0,0
25.04.2017 16:00:00 5,7 -3,1 34 18 52 28 N 0,0
25.04.2017 15:00:00 7,2 -2,7 34 18 59 32 N 0,0
25.04.2017 14:00:00 6,6 -2,0 31 17 54 29 N 0,0
25.04.2017 13:00:00 5,8 -2,1 35 19 48 26 N 0,0
25.04.2017 12:00:00 4,7 -3,0 29 16 46 25 N 0,0
25.04.2017 11:00:00 4,6 -3,7 29 16 48 26 N 0,0
25.04.2017 10:00:00 3,5 -3,6 34 18 52 28 NNW 0,0
25.04.2017 09:00:00 3,3 -3,5 31 17 50 27 N 0,0
25.04.2017 08:00:00 2,7 -2,8 24 13 - - NW 0,0
25.04.2017 07:00:00 0,4 -3,1 18 10 - - NW 0,0
25.04.2017 06:00:00 -0,6 -3,7 15 8 - - NW 0,0
25.04.2017 05:00:00 -0,6 -3,9 16 9 - - NW 0,0
25.04.2017 04:00:00 -1,7 -5,0 8 4 - - W 0,0
25.04.2017 03:00:00 -0,8 -5,1 15 8 - - N 0,0
25.04.2017 02:00:00 -1,0 -4,5 13 7 - - N 0,0
25.04.2017 01:00:00 0,5 -3,9 35 19 65 35 N 0,0
25.04.2017 00:00:00 0,4 -1,4 13 7 - - WNW 0,0
24.04.2017 23:00:00 0,0 -1,9 9 5 - - W 0,0
24.04.2017 22:00:00 -0,2 -2,6 21 11 - - WNW 0,0
24.04.2017 21:00:00 0,9 -3,6 26 14 - - W 0,0
24.04.2017 20:00:00 2,4 -5,9 34 18 46 25 WNW 0,0
24.04.2017 19:00:00 4,4 -6,5 31 17 - - NW 0,0
24.04.2017 18:00:00 5,1 -6,2 34 18 52 28 NW 0,0
24.04.2017 17:00:00 4,9 -3,7 42 23 59 32 NNW 0,4
24.04.2017 16:00:00 1,9 -1,0 28 15 65 35 NNW 0,8
24.04.2017 15:00:00 5,7 -3,3 39 21 59 32 NW 0,0
24.04.2017 14:00:00 7,8 -1,8 42 23 65 35 WNW 0,0
24.04.2017 13:00:00 6,8 -2,1 48 26 70 38 WNW 0,0
24.04.2017 12:00:00 6,7 -2,0 42 23 61 33 W 0,0
24.04.2017 11:00:00 5,8 -3,7 39 21 57 31 WNW 0,0
24.04.2017 10:00:00 5,7 -1,2 35 19 - - WNW 0,0
24.04.2017 09:00:00 5,5 -0,9 28 15 - - WNW 0,0
24.04.2017 08:00:00 3,9 1,3 16 9 - - WNW 0,0
24.04.2017 07:00:00 2,5 1,2 15 8 - - WNW 0,0
24.04.2017 06:00:00 2,6 1,3 13 7 - - W 0,0
24.04.2017 05:00:00 4,6 2,9 18 10 - - WNW 0,0
24.04.2017 04:00:00 6,0 5,0 26 14 - - W 0,2
24.04.2017 03:00:00 6,4 5,0 21 11 46 25 W 0,0
24.04.2017 02:00:00 6,6 5,3 29 16 52 28 W 0,0
24.04.2017 01:00:00 6,9 5,5 34 18 48 26 W 0,0
24.04.2017 00:00:00 7,0 5,4 35 19 54 29 W 0,0
23.04.2017 23:00:00 6,7 4,9 31 17 48 26 WSW 0,0
23.04.2017 22:00:00 6,4 5,3 26 14 - - WSW 0,0
23.04.2017 21:00:00 6,5 4,8 28 15 - - WSW 0,0
23.04.2017 20:00:00 7,1 4,3 28 15 50 27 SW 0,0
23.04.2017 19:00:00 8,3 3,7 34 18 55 30 W 0,0
23.04.2017 18:00:00 9,1 2,5 31 17 52 28 W 0,0
23.04.2017 17:00:00 9,7 2,0 39 21 52 28 W 0,0
23.04.2017 16:00:00 9,2 2,3 31 17 46 25 W 0,0
23.04.2017 15:00:00 10,2 2,4 29 16 - - W 0,0
23.04.2017 14:00:00 9,3 2,6 29 16 - - W 0,0
23.04.2017 13:00:00 9,0 2,6 24 13 - - W 0,0
23.04.2017 12:00:00 9,2 2,9 18 10 - - W 0,0
23.04.2017 11:00:00 8,3 2,2 21 11 - - W 0,0
23.04.2017 10:00:00 7,1 1,8 15 8 - - WSW 0,0
23.04.2017 09:00:00 4,6 2,6 9 5 - - WSW 0,0
23.04.2017 08:00:00 2,3 0,9 8 4 - - SSW 0,0
23.04.2017 07:00:00 1,4 0,3 5 3 - - S 0,0
23.04.2017 06:00:00 1,4 0,1 5 3 - - S 0,0
23.04.2017 05:00:00 1,9 0,3 5 3 - - SSW 0,0
23.04.2017 04:00:00 2,4 0,4 5 3 - - SW 0,0
23.04.2017 03:00:00 3,0 0,3 4 2 - - SW 0,0
23.04.2017 02:00:00 4,0 -0,3 4 2 - - WNW 0,0
23.04.2017 01:00:00 4,6 -0,5 9 5 - - N 0,0
23.04.2017 00:00:00 5,0 -0,2 9 5 - - N 0,0
22.04.2017 23:00:00 4,8 -0,2 8 4 - - NNW 0,0
22.04.2017 22:00:00 6,2 0,4 5 3 - - NW 0,0
22.04.2017 21:00:00 6,8 0,4 11 6 - - NNW 0,0
22.04.2017 20:00:00 8,2 0,5 9 5 - - N 0,0
22.04.2017 19:00:00 8,7 0,3 13 7 - - N 0,0
22.04.2017 18:00:00 9,2 -1,0 18 10 - - NW 0,0
22.04.2017 17:00:00 10,1 -0,5 21 11 - - WNW 0,0
22.04.2017 16:00:00 10,9 0,5 21 11 - - W 0,0
22.04.2017 15:00:00 9,7 0,0 11 6 - - WNW 0,0
22.04.2017 14:00:00 9,2 -1,9 11 6 - - NW 0,0
22.04.2017 13:00:00 8,4 -1,9 15 8 - - NNW 0,0
22.04.2017 12:00:00 8,4 -0,9 16 9 - - NW 0,0
22.04.2017 11:00:00 6,6 -1,6 16 9 - - NW 0,0
22.04.2017 10:00:00 6,6 -0,7 9 5 - - WNW 0,0
22.04.2017 09:00:00 5,0 0,8 13 7 - - W 0,0
22.04.2017 08:00:00 2,5 1,0 8 4 - - W 0,0
22.04.2017 07:00:00 1,4 0,6 5 3 - - W 0,0
22.04.2017 06:00:00 1,4 0,5 8 4 - - W 0,0
22.04.2017 05:00:00 1,4 0,4 8 4 - - WSW 0,0
22.04.2017 04:00:00 1,6 0,2 9 5 - - WSW 0,0
22.04.2017 03:00:00 2,5 0,3 8 4 - - WSW 0,0
22.04.2017 02:00:00 3,0 0,3 5 3 - - W 0,0
22.04.2017 01:00:00 3,2 0,0 8 4 - - W 0,0
22.04.2017 00:00:00 3,4 -0,3 8 4 - - WNW 0,0
21.04.2017 23:00:00 3,6 0,0 13 7 - - WNW 0,0
21.04.2017 22:00:00 4,8 0,3 16 9 - - NW 0,0
21.04.2017 21:00:00 5,8 0,9 16 9 - - W 0,0
21.04.2017 20:00:00 8,0 0,7 29 16 - - WNW 0,0
21.04.2017 19:00:00 9,6 1,2 35 19 - - WNW 0,0
21.04.2017 18:00:00 11,1 2,9 34 18 - - WNW 0,0
21.04.2017 17:00:00 11,3 4,0 31 17 46 25 WNW 0,0
21.04.2017 16:00:00 11,3 5,1 31 17 48 26 WNW 0,0
21.04.2017 15:00:00 10,5 5,3 34 18 55 30 WNW 0,0
21.04.2017 14:00:00 12,2 8,0 37 20 52 28 W 0,0
21.04.2017 13:00:00 9,9 8,4 34 18 50 27 W 0,0
21.04.2017 12:00:00 9,6 7,5 35 19 52 28 W 0,2
21.04.2017 11:00:00 8,8 7,9 31 17 46 25 W 0,0
21.04.2017 10:00:00 8,8 8,1 26 14 50 27 W 0,0
21.04.2017 09:00:00 8,4 8,3 34 18 - - W 0,0
21.04.2017 08:00:00 8,2 7,9 35 19 46 25 W 0,0
21.04.2017 07:00:00 8,2 8,1 35 19 48 26 W 0,2
21.04.2017 06:00:00 8,2 8,1 29 16 46 25 W 0,0
21.04.2017 05:00:00 8,2 8,2 29 16 - - W 0,0
21.04.2017 04:00:00 8,2 8,1 28 15 - - W 0,4
21.04.2017 03:00:00 8,2 8,2 22 12 - - W 0,4
21.04.2017 02:00:00 8,2 8,1 24 13 - - W 0,2
21.04.2017 01:00:00 8,4 7,8 24 13 - - W 0,0
21.04.2017 00:00:00 8,6 7,6 28 15 - - W 0,0

tt = temperature
td = dewpoint
ff = wind speed
fx = gusts
dd = wind direction
rr = precipitation

Next stations